sensor_id;sensor_type;location;lat;lon;timestamp;P1;durP1;ratioP1;P2;durP2;ratioP2
41572;SDS011;27286;47.870;19.006;2023-04-01T00:01:53;4.80;;;0.73;;
41572;SDS011;27286;47.870;19.006;2023-04-01T00:04:19;3.30;;;0.70;;
41572;SDS011;27286;47.870;19.006;2023-04-01T00:06:45;2.13;;;0.40;;
41572;SDS011;27286;47.870;19.006;2023-04-01T00:09:12;1.85;;;0.40;;
41572;SDS011;27286;47.870;19.006;2023-04-01T00:11:38;5.57;;;0.60;;
41572;SDS011;27286;47.870;19.006;2023-04-01T00:14:04;2.95;;;0.40;;
41572;SDS011;27286;47.870;19.006;2023-04-01T00:16:30;3.15;;;0.57;;
41572;SDS011;27286;47.870;19.006;2023-04-01T00:18:55;3.05;;;0.60;;
41572;SDS011;27286;47.870;19.006;2023-04-01T00:21:21;3.03;;;0.90;;
41572;SDS011;27286;47.870;19.006;2023-04-01T00:23:47;3.10;;;0.70;;
41572;SDS011;27286;47.870;19.006;2023-04-01T00:26:13;3.08;;;0.60;;
41572;SDS011;27286;47.870;19.006;2023-04-01T00:28:42;2.03;;;0.60;;
41572;SDS011;27286;47.870;19.006;2023-04-01T00:31:09;2.97;;;0.77;;
41572;SDS011;27286;47.870;19.006;2023-04-01T00:33:35;5.82;;;1.20;;
41572;SDS011;27286;47.870;19.006;2023-04-01T00:36:11;3.92;;;0.60;;
41572;SDS011;27286;47.870;19.006;2023-04-01T00:38:38;2.70;;;0.32;;
41572;SDS011;27286;47.870;19.006;2023-04-01T00:41:04;2.90;;;0.60;;
41572;SDS011;27286;47.870;19.006;2023-04-01T00:43:30;2.10;;;0.77;;
41572;SDS011;27286;47.870;19.006;2023-04-01T00:45:56;5.93;;;0.93;;
41572;SDS011;27286;47.870;19.006;2023-04-01T00:48:26;2.05;;;0.75;;
41572;SDS011;27286;47.870;19.006;2023-04-01T00:51:00;5.43;;;1.20;;
41572;SDS011;27286;47.870;19.006;2023-04-01T00:53:26;4.78;;;0.80;;
41572;SDS011;27286;47.870;19.006;2023-04-01T00:56:02;4.85;;;0.90;;
41572;SDS011;27286;47.870;19.006;2023-04-01T00:58:34;3.03;;;0.60;;
41572;SDS011;27286;47.870;19.006;2023-04-01T01:01:03;2.55;;;0.55;;
41572;SDS011;27286;47.870;19.006;2023-04-01T01:03:29;2.10;;;0.77;;
41572;SDS011;27286;47.870;19.006;2023-04-01T01:08:29;2.63;;;0.50;;
41572;SDS011;27286;47.870;19.006;2023-04-01T01:11:05;3.17;;;0.60;;
41572;SDS011;27286;47.870;19.006;2023-04-01T01:13:34;2.78;;;0.60;;
41572;SDS011;27286;47.870;19.006;2023-04-01T01:16:13;2.45;;;0.77;;
41572;SDS011;27286;47.870;19.006;2023-04-01T01:18:53;3.92;;;0.80;;
41572;SDS011;27286;47.870;19.006;2023-04-01T01:24:30;3.38;;;0.50;;
41572;SDS011;27286;47.870;19.006;2023-04-01T01:27:17;4.63;;;0.93;;
41572;SDS011;27286;47.870;19.006;2023-04-01T01:29:54;2.03;;;0.57;;
41572;SDS011;27286;47.870;19.006;2023-04-01T01:37:54;3.15;;;0.52;;
41572;SDS011;27286;47.870;19.006;2023-04-01T01:40:26;3.50;;;0.70;;
41572;SDS011;27286;47.870;19.006;2023-04-01T01:42:55;3.15;;;0.93;;
41572;SDS011;27286;47.870;19.006;2023-04-01T01:45:25;2.60;;;0.63;;
41572;SDS011;27286;47.870;19.006;2023-04-01T01:47:52;5.68;;;0.57;;
41572;SDS011;27286;47.870;19.006;2023-04-01T01:50:19;2.35;;;0.57;;
41572;SDS011;27286;47.870;19.006;2023-04-01T01:52:47;3.85;;;1.08;;
41572;SDS011;27286;47.870;19.006;2023-04-01T01:55:23;2.28;;;0.60;;
41572;SDS011;27286;47.870;19.006;2023-04-01T01:58:00;2.42;;;0.50;;
41572;SDS011;27286;47.870;19.006;2023-04-01T02:00:31;2.03;;;0.65;;
41572;SDS011;27286;47.870;19.006;2023-04-01T02:02:58;2.63;;;0.80;;
41572;SDS011;27286;47.870;19.006;2023-04-01T02:05:26;1.60;;;0.40;;
41572;SDS011;27286;47.870;19.006;2023-04-01T02:07:57;2.97;;;1.02;;
41572;SDS011;27286;47.870;19.006;2023-04-01T02:11:13;4.85;;;2.08;;
41572;SDS011;27286;47.870;19.006;2023-04-01T02:16:20;2.47;;;1.10;;
41572;SDS011;27286;47.870;19.006;2023-04-01T02:18:49;1.98;;;0.50;;
41572;SDS011;27286;47.870;19.006;2023-04-01T02:21:19;1.83;;;0.43;;
41572;SDS011;27286;47.870;19.006;2023-04-01T02:23:47;2.47;;;0.30;;
41572;SDS011;27286;47.870;19.006;2023-04-01T02:26:14;2.17;;;0.45;;
41572;SDS011;27286;47.870;19.006;2023-04-01T02:28:40;2.38;;;0.30;;
41572;SDS011;27286;47.870;19.006;2023-04-01T02:31:11;2.78;;;0.45;;
41572;SDS011;27286;47.870;19.006;2023-04-01T02:33:38;2.30;;;0.40;;
41572;SDS011;27286;47.870;19.006;2023-04-01T02:36:05;2.05;;;0.45;;
41572;SDS011;27286;47.870;19.006;2023-04-01T02:38:31;1.10;;;0.40;;
41572;SDS011;27286;47.870;19.006;2023-04-01T02:40:58;2.90;;;0.40;;
41572;SDS011;27286;47.870;19.006;2023-04-01T02:43:25;2.60;;;0.45;;
41572;SDS011;27286;47.870;19.006;2023-04-01T02:45:52;7.93;;;0.50;;
41572;SDS011;27286;47.870;19.006;2023-04-01T02:48:17;4.90;;;0.30;;
41572;SDS011;27286;47.870;19.006;2023-04-01T02:50:43;1.00;;;0.30;;
41572;SDS011;27286;47.870;19.006;2023-04-01T02:53:08;1.90;;;0.30;;
41572;SDS011;27286;47.870;19.006;2023-04-01T02:55:34;2.95;;;1.30;;
41572;SDS011;27286;47.870;19.006;2023-04-01T02:57:59;1.52;;;0.38;;
41572;SDS011;27286;47.870;19.006;2023-04-01T03:00:25;2.03;;;0.57;;
41572;SDS011;27286;47.870;19.006;2023-04-01T03:02:51;2.45;;;0.93;;
41572;SDS011;27286;47.870;19.006;2023-04-01T03:05:17;1.92;;;0.40;;
41572;SDS011;27286;47.870;19.006;2023-04-01T03:07:43;0.77;;;0.20;;
41572;SDS011;27286;47.870;19.006;2023-04-01T03:10:09;3.00;;;0.60;;
41572;SDS011;27286;47.870;19.006;2023-04-01T03:12:35;1.30;;;0.30;;
41572;SDS011;27286;47.870;19.006;2023-04-01T03:15:01;1.90;;;0.45;;
41572;SDS011;27286;47.870;19.006;2023-04-01T03:17:26;1.50;;;0.40;;
41572;SDS011;27286;47.870;19.006;2023-04-01T03:19:51;1.85;;;0.30;;
41572;SDS011;27286;47.870;19.006;2023-04-01T03:22:17;2.35;;;0.30;;
41572;SDS011;27286;47.870;19.006;2023-04-01T03:24:46;4.35;;;0.47;;
41572;SDS011;27286;47.870;19.006;2023-04-01T03:27:12;2.20;;;0.40;;
41572;SDS011;27286;47.870;19.006;2023-04-01T03:29:37;2.25;;;0.40;;
41572;SDS011;27286;47.870;19.006;2023-04-01T03:32:03;2.55;;;0.45;;
41572;SDS011;27286;47.870;19.006;2023-04-01T03:34:29;1.40;;;0.35;;
41572;SDS011;27286;47.870;19.006;2023-04-01T03:36:55;4.80;;;1.20;;
41572;SDS011;27286;47.870;19.006;2023-04-01T03:39:20;2.85;;;0.43;;
41572;SDS011;27286;47.870;19.006;2023-04-01T03:41:46;2.53;;;0.65;;
41572;SDS011;27286;47.870;19.006;2023-04-01T03:44:11;2.58;;;0.50;;
41572;SDS011;27286;47.870;19.006;2023-04-01T03:46:37;3.13;;;0.60;;
41572;SDS011;27286;47.870;19.006;2023-04-01T03:49:02;4.53;;;0.50;;
41572;SDS011;27286;47.870;19.006;2023-04-01T03:51:36;3.55;;;0.65;;
41572;SDS011;27286;47.870;19.006;2023-04-01T03:54:05;1.05;;;0.40;;
41572;SDS011;27286;47.870;19.006;2023-04-01T03:56:31;1.88;;;0.40;;
41572;SDS011;27286;47.870;19.006;2023-04-01T03:58:57;2.80;;;0.38;;
41572;SDS011;27286;47.870;19.006;2023-04-01T04:01:22;3.47;;;0.63;;
41572;SDS011;27286;47.870;19.006;2023-04-01T04:03:48;3.38;;;0.50;;
41572;SDS011;27286;47.870;19.006;2023-04-01T04:06:15;2.55;;;0.73;;
41572;SDS011;27286;47.870;19.006;2023-04-01T04:08:42;6.00;;;0.90;;
41572;SDS011;27286;47.870;19.006;2023-04-01T04:11:08;1.73;;;0.40;;
41572;SDS011;27286;47.870;19.006;2023-04-01T04:13:33;1.20;;;0.40;;
41572;SDS011;27286;47.870;19.006;2023-04-01T04:16:00;1.85;;;0.50;;
41572;SDS011;27286;47.870;19.006;2023-04-01T04:18:27;3.30;;;0.43;;
41572;SDS011;27286;47.870;19.006;2023-04-01T04:20:52;3.03;;;0.57;;
41572;SDS011;27286;47.870;19.006;2023-04-01T04:23:18;2.70;;;0.60;;
41572;SDS011;27286;47.870;19.006;2023-04-01T04:25:59;2.88;;;0.60;;
41572;SDS011;27286;47.870;19.006;2023-04-01T04:28:27;2.13;;;0.55;;
41572;SDS011;27286;47.870;19.006;2023-04-01T04:30:54;1.52;;;0.40;;
41572;SDS011;27286;47.870;19.006;2023-04-01T04:33:20;1.83;;;0.50;;
41572;SDS011;27286;47.870;19.006;2023-04-01T04:35:46;1.70;;;0.50;;
41572;SDS011;27286;47.870;19.006;2023-04-01T04:38:12;2.70;;;0.70;;
41572;SDS011;27286;47.870;19.006;2023-04-01T04:40:38;3.72;;;0.63;;
41572;SDS011;27286;47.870;19.006;2023-04-01T04:43:04;1.80;;;0.45;;
41572;SDS011;27286;47.870;19.006;2023-04-01T04:45:30;2.90;;;0.65;;
41572;SDS011;27286;47.870;19.006;2023-04-01T04:47:56;2.60;;;0.70;;
41572;SDS011;27286;47.870;19.006;2023-04-01T04:50:22;3.90;;;0.40;;
41572;SDS011;27286;47.870;19.006;2023-04-01T04:52:48;3.45;;;0.60;;
41572;SDS011;27286;47.870;19.006;2023-04-01T04:55:14;3.10;;;0.73;;
41572;SDS011;27286;47.870;19.006;2023-04-01T04:57:40;4.68;;;0.70;;
41572;SDS011;27286;47.870;19.006;2023-04-01T05:00:07;2.78;;;0.40;;
41572;SDS011;27286;47.870;19.006;2023-04-01T05:02:35;2.42;;;0.60;;
41572;SDS011;27286;47.870;19.006;2023-04-01T05:05:00;4.82;;;0.60;;
41572;SDS011;27286;47.870;19.006;2023-04-01T05:07:26;2.80;;;0.77;;
41572;SDS011;27286;47.870;19.006;2023-04-01T05:09:51;2.15;;;0.60;;
41572;SDS011;27286;47.870;19.006;2023-04-01T05:12:16;3.10;;;0.55;;
41572;SDS011;27286;47.870;19.006;2023-04-01T05:14:42;4.63;;;1.73;;
41572;SDS011;27286;47.870;19.006;2023-04-01T05:17:11;3.35;;;1.25;;
41572;SDS011;27286;47.870;19.006;2023-04-01T05:19:37;5.68;;;0.70;;
41572;SDS011;27286;47.870;19.006;2023-04-01T05:22:04;2.05;;;0.75;;
41572;SDS011;27286;47.870;19.006;2023-04-01T05:24:30;2.53;;;0.60;;
41572;SDS011;27286;47.870;19.006;2023-04-01T05:26:56;3.80;;;0.70;;
41572;SDS011;27286;47.870;19.006;2023-04-01T05:29:22;6.82;;;1.50;;
41572;SDS011;27286;47.870;19.006;2023-04-01T05:31:48;4.93;;;1.35;;
41572;SDS011;27286;47.870;19.006;2023-04-01T05:34:14;4.28;;;2.25;;
41572;SDS011;27286;47.870;19.006;2023-04-01T05:36:39;1.88;;;0.90;;
41572;SDS011;27286;47.870;19.006;2023-04-01T05:39:06;4.60;;;1.23;;
41572;SDS011;27286;47.870;19.006;2023-04-01T05:41:34;2.90;;;1.20;;
41572;SDS011;27286;47.870;19.006;2023-04-01T05:44:00;5.55;;;1.17;;
41572;SDS011;27286;47.870;19.006;2023-04-01T05:46:26;2.38;;;0.88;;
41572;SDS011;27286;47.870;19.006;2023-04-01T05:48:51;3.53;;;1.00;;
41572;SDS011;27286;47.870;19.006;2023-04-01T05:51:17;4.88;;;1.92;;
41572;SDS011;27286;47.870;19.006;2023-04-01T05:53:42;7.10;;;2.15;;
41572;SDS011;27286;47.870;19.006;2023-04-01T05:56:08;5.10;;;1.42;;
41572;SDS011;27286;47.870;19.006;2023-04-01T05:58:34;30.98;;;4.00;;
41572;SDS011;27286;47.870;19.006;2023-04-01T06:01:04;3.60;;;1.00;;
41572;SDS011;27286;47.870;19.006;2023-04-01T06:03:32;4.32;;;1.23;;
41572;SDS011;27286;47.870;19.006;2023-04-01T06:05:58;3.42;;;0.73;;
41572;SDS011;27286;47.870;19.006;2023-04-01T06:08:24;3.83;;;1.25;;
41572;SDS011;27286;47.870;19.006;2023-04-01T06:25:04;3.58;;;0.43;;
41572;SDS011;27286;47.870;19.006;2023-04-01T06:43:57;4.38;;;0.35;;
41572;SDS011;27286;47.870;19.006;2023-04-01T06:46:37;5.57;;;0.35;;
41572;SDS011;27286;47.870;19.006;2023-04-01T06:54:55;3.10;;;0.30;;
41572;SDS011;27286;47.870;19.006;2023-04-01T06:57:31;1.75;;;0.20;;
41572;SDS011;27286;47.870;19.006;2023-04-01T07:00:03;5.03;;;0.40;;
41572;SDS011;27286;47.870;19.006;2023-04-01T07:02:45;1.73;;;0.22;;
41572;SDS011;27286;47.870;19.006;2023-04-01T07:05:18;1.35;;;0.20;;
41572;SDS011;27286;47.870;19.006;2023-04-01T07:07:46;1.38;;;0.20;;
41572;SDS011;27286;47.870;19.006;2023-04-01T07:13:48;2.75;;;0.43;;
41572;SDS011;27286;47.870;19.006;2023-04-01T07:18:59;1.40;;;0.17;;
41572;SDS011;27286;47.870;19.006;2023-04-01T07:21:26;2.50;;;0.20;;
41572;SDS011;27286;47.870;19.006;2023-04-01T07:24:02;0.93;;;0.20;;
41572;SDS011;27286;47.870;19.006;2023-04-01T07:26:31;0.85;;;0.13;;
41572;SDS011;27286;47.870;19.006;2023-04-01T07:28:57;1.45;;;0.20;;
41572;SDS011;27286;47.870;19.006;2023-04-01T07:34:01;0.77;;;0.17;;
41572;SDS011;27286;47.870;19.006;2023-04-01T07:39:14;2.63;;;1.10;;
41572;SDS011;27286;47.870;19.006;2023-04-01T07:47:11;1.58;;;0.25;;
41572;SDS011;27286;47.870;19.006;2023-04-01T07:52:21;1.05;;;0.20;;
41572;SDS011;27286;47.870;19.006;2023-04-01T07:57:43;2.30;;;0.30;;
41572;SDS011;27286;47.870;19.006;2023-04-01T08:05:25;1.15;;;0.20;;
41572;SDS011;27286;47.870;19.006;2023-04-01T08:22:23;4.32;;;0.63;;
41572;SDS011;27286;47.870;19.006;2023-04-01T08:24:51;5.45;;;2.47;;
41572;SDS011;27286;47.870;19.006;2023-04-01T08:27:21;4.20;;;1.50;;
41572;SDS011;27286;47.870;19.006;2023-04-01T08:29:58;2.55;;;0.60;;
41572;SDS011;27286;47.870;19.006;2023-04-01T08:32:37;7.78;;;3.28;;
41572;SDS011;27286;47.870;19.006;2023-04-01T08:37:40;4.70;;;0.80;;
41572;SDS011;27286;47.870;19.006;2023-04-01T08:56:33;1.27;;;0.30;;
41572;SDS011;27286;47.870;19.006;2023-04-01T09:04:41;2.40;;;0.30;;
41572;SDS011;27286;47.870;19.006;2023-04-01T09:19:01;4.03;;;2.00;;
41572;SDS011;27286;47.870;19.006;2023-04-01T09:21:51;9.40;;;8.35;;
41572;SDS011;27286;47.870;19.006;2023-04-01T09:29:46;0.90;;;0.30;;
41572;SDS011;27286;47.870;19.006;2023-04-01T09:32:40;2.85;;;0.30;;
41572;SDS011;27286;47.870;19.006;2023-04-01T09:40:37;4.13;;;0.70;;
41572;SDS011;27286;47.870;19.006;2023-04-01T09:46:09;4.55;;;0.50;;
41572;SDS011;27286;47.870;19.006;2023-04-01T09:53:39;1.70;;;0.28;;
41572;SDS011;27286;47.870;19.006;2023-04-01T10:10:20;3.15;;;0.30;;
41572;SDS011;27286;47.870;19.006;2023-04-01T10:13:05;3.03;;;0.40;;
41572;SDS011;27286;47.870;19.006;2023-04-01T10:51:25;4.50;;;0.95;;
41572;SDS011;27286;47.870;19.006;2023-04-01T10:54:18;5.18;;;2.10;;
41572;SDS011;27286;47.870;19.006;2023-04-01T11:02:45;4.10;;;1.25;;
41572;SDS011;27286;47.870;19.006;2023-04-01T11:19:55;1.30;;;0.32;;
41572;SDS011;27286;47.870;19.006;2023-04-01T11:22:15;1.05;;;0.30;;
41572;SDS011;27286;47.870;19.006;2023-04-01T11:30:28;0.88;;;0.20;;
41572;SDS011;27286;47.870;19.006;2023-04-01T11:33:03;2.50;;;0.30;;
41572;SDS011;27286;47.870;19.006;2023-04-01T11:38:57;2.42;;;0.20;;
41572;SDS011;27286;47.870;19.006;2023-04-01T11:57:50;2.42;;;0.32;;
41572;SDS011;27286;47.870;19.006;2023-04-01T12:14:05;3.75;;;2.15;;
41572;SDS011;27286;47.870;19.006;2023-04-01T12:16:57;4.28;;;1.52;;
41572;SDS011;27286;47.870;19.006;2023-04-01T12:22:32;3.50;;;1.40;;
41572;SDS011;27286;47.870;19.006;2023-04-01T12:27:43;3.83;;;0.43;;
41572;SDS011;27286;47.870;19.006;2023-04-01T13:05:25;1.98;;;0.50;;
41572;SDS011;27286;47.870;19.006;2023-04-01T13:11:18;7.25;;;0.80;;
41572;SDS011;27286;47.870;19.006;2023-04-01T13:27:51;3.05;;;0.32;;
41572;SDS011;27286;47.870;19.006;2023-04-01T13:30:30;3.97;;;0.30;;
41572;SDS011;27286;47.870;19.006;2023-04-01T13:43:37;1.90;;;0.20;;
41572;SDS011;27286;47.870;19.006;2023-04-01T13:46:16;1.98;;;0.20;;
41572;SDS011;27286;47.870;19.006;2023-04-01T13:54:11;0.97;;;0.17;;
41572;SDS011;27286;47.870;19.006;2023-04-01T14:10:23;3.72;;;0.52;;
41572;SDS011;27286;47.870;19.006;2023-04-01T14:26:42;0.40;;;0.10;;
41572;SDS011;27286;47.870;19.006;2023-04-01T14:37:15;5.68;;;0.63;;
41572;SDS011;27286;47.870;19.006;2023-04-01T14:51:01;6.35;;;2.30;;
41572;SDS011;27286;47.870;19.006;2023-04-01T14:53:34;14.13;;;8.90;;
41572;SDS011;27286;47.870;19.006;2023-04-01T14:56:07;5.90;;;3.75;;
41572;SDS011;27286;47.870;19.006;2023-04-01T14:58:41;3.60;;;1.67;;
41572;SDS011;27286;47.870;19.006;2023-04-01T15:20:51;7.90;;;0.60;;
41572;SDS011;27286;47.870;19.006;2023-04-01T15:37:20;0.93;;;0.25;;
41572;SDS011;27286;47.870;19.006;2023-04-01T15:47:53;1.98;;;0.20;;
41572;SDS011;27286;47.870;19.006;2023-04-01T16:06:44;1.67;;;0.22;;
41572;SDS011;27286;47.870;19.006;2023-04-01T16:24:43;1.27;;;0.20;;
41572;SDS011;27286;47.870;19.006;2023-04-01T16:41:49;1.38;;;0.13;;
41572;SDS011;27286;47.870;19.006;2023-04-01T16:44:25;2.33;;;0.40;;
41572;SDS011;27286;47.870;19.006;2023-04-01T16:46:53;1.67;;;0.40;;
41572;SDS011;27286;47.870;19.006;2023-04-01T16:49:46;1.15;;;0.20;;
41572;SDS011;27286;47.870;19.006;2023-04-01T16:52:40;7.40;;;0.30;;
41572;SDS011;27286;47.870;19.006;2023-04-01T16:55:33;5.47;;;0.10;;
41572;SDS011;27286;47.870;19.006;2023-04-01T16:58:24;0.80;;;0.13;;
41572;SDS011;27286;47.870;19.006;2023-04-01T17:01:06;2.95;;;0.30;;
41572;SDS011;27286;47.870;19.006;2023-04-01T17:03:49;6.80;;;0.20;;
41572;SDS011;27286;47.870;19.006;2023-04-01T17:09:01;0.60;;;0.10;;
41572;SDS011;27286;47.870;19.006;2023-04-01T17:11:49;3.30;;;0.10;;
41572;SDS011;27286;47.870;19.006;2023-04-01T17:23:32;1.15;;;0.40;;
41572;SDS011;27286;47.870;19.006;2023-04-01T17:28:56;12.68;;;0.30;;
41572;SDS011;27286;47.870;19.006;2023-04-01T17:39:47;2.38;;;0.30;;
41572;SDS011;27286;47.870;19.006;2023-04-01T17:42:38;1.25;;;0.30;;
41572;SDS011;27286;47.870;19.006;2023-04-01T18:01:56;6.60;;;0.40;;
41572;SDS011;27286;47.870;19.006;2023-04-01T18:04:34;1.05;;;0.17;;
41572;SDS011;27286;47.870;19.006;2023-04-01T18:07:44;0.47;;;0.10;;
41572;SDS011;27286;47.870;19.006;2023-04-01T18:16:05;1.00;;;0.20;;
41572;SDS011;27286;47.870;19.006;2023-04-01T18:24:16;54.47;;;34.10;;
41572;SDS011;27286;47.870;19.006;2023-04-01T18:26:50;70.53;;;48.40;;
41572;SDS011;27286;47.870;19.006;2023-04-01T18:32:16;26.65;;;17.95;;
41572;SDS011;27286;47.870;19.006;2023-04-01T18:37:39;6.65;;;3.47;;
41572;SDS011;27286;47.870;19.006;2023-04-01T18:46:24;4.13;;;1.10;;
41572;SDS011;27286;47.870;19.006;2023-04-01T18:54:27;20.88;;;14.40;;
41572;SDS011;27286;47.870;19.006;2023-04-01T18:57:16;17.70;;;11.65;;
41572;SDS011;27286;47.870;19.006;2023-04-01T18:59:55;18.33;;;11.95;;
41572;SDS011;27286;47.870;19.006;2023-04-01T19:02:36;16.77;;;9.93;;
41572;SDS011;27286;47.870;19.006;2023-04-01T19:05:08;12.25;;;8.07;;
41572;SDS011;27286;47.870;19.006;2023-04-01T19:21:26;0.80;;;0.10;;
41572;SDS011;27286;47.870;19.006;2023-04-01T19:26:46;0.85;;;0.10;;
41572;SDS011;27286;47.870;19.006;2023-04-01T19:29:42;1.75;;;0.08;;
41572;SDS011;27286;47.870;19.006;2023-04-01T19:35:35;1.13;;;0.10;;
41572;SDS011;27286;47.870;19.006;2023-04-01T19:38:13;7.13;;;0.20;;
41572;SDS011;27286;47.870;19.006;2023-04-01T19:40:55;1.75;;;0.10;;
41572;SDS011;27286;47.870;19.006;2023-04-01T19:54:30;0.30;;;0.10;;
41572;SDS011;27286;47.870;19.006;2023-04-01T19:59:48;1.15;;;0.13;;
41572;SDS011;27286;47.870;19.006;2023-04-01T20:05:34;10.93;;;7.85;;
41572;SDS011;27286;47.870;19.006;2023-04-01T20:10:35;5.57;;;3.25;;
41572;SDS011;27286;47.870;19.006;2023-04-01T20:16:03;2.00;;;0.75;;
41572;SDS011;27286;47.870;19.006;2023-04-01T20:18:36;1.85;;;0.20;;
41572;SDS011;27286;47.870;19.006;2023-04-01T20:23:59;2.72;;;0.20;;
41572;SDS011;27286;47.870;19.006;2023-04-01T20:26:40;1.75;;;0.20;;
41572;SDS011;27286;47.870;19.006;2023-04-01T20:45:51;1.65;;;0.30;;
41572;SDS011;27286;47.870;19.006;2023-04-01T20:50:55;1.05;;;0.20;;
41572;SDS011;27286;47.870;19.006;2023-04-01T20:53:28;1.48;;;0.20;;
41572;SDS011;27286;47.870;19.006;2023-04-01T21:04:06;1.17;;;0.20;;
41572;SDS011;27286;47.870;19.006;2023-04-01T21:12:04;1.80;;;0.10;;
41572;SDS011;27286;47.870;19.006;2023-04-01T21:18:00;1.73;;;0.47;;
41572;SDS011;27286;47.870;19.006;2023-04-01T21:23:51;2.28;;;0.40;;
41572;SDS011;27286;47.870;19.006;2023-04-01T21:34:35;7.00;;;0.60;;
41572;SDS011;27286;47.870;19.006;2023-04-01T21:40:00;2.58;;;0.60;;
41572;SDS011;27286;47.870;19.006;2023-04-01T22:00:15;3.65;;;0.98;;
41572;SDS011;27286;47.870;19.006;2023-04-01T22:05:19;3.17;;;1.02;;
41572;SDS011;27286;47.870;19.006;2023-04-01T22:13:05;3.35;;;0.90;;
41572;SDS011;27286;47.870;19.006;2023-04-01T22:29:37;2.67;;;0.65;;
41572;SDS011;27286;47.870;19.006;2023-04-01T22:32:09;3.42;;;0.65;;
41572;SDS011;27286;47.870;19.006;2023-04-01T22:39:52;1.55;;;0.75;;
41572;SDS011;27286;47.870;19.006;2023-04-01T22:44:51;2.75;;;1.05;;
41572;SDS011;27286;47.870;19.006;2023-04-01T22:57:53;2.35;;;1.05;;
41572;SDS011;27286;47.870;19.006;2023-04-01T23:00:28;2.72;;;0.82;;
41572;SDS011;27286;47.870;19.006;2023-04-01T23:05:57;3.38;;;1.33;;
41572;SDS011;27286;47.870;19.006;2023-04-01T23:11:20;3.05;;;1.10;;
41572;SDS011;27286;47.870;19.006;2023-04-01T23:13:52;3.00;;;1.20;;
41572;SDS011;27286;47.870;19.006;2023-04-01T23:16:32;8.23;;;1.30;;
41572;SDS011;27286;47.870;19.006;2023-04-01T23:19:14;3.88;;;1.50;;
41572;SDS011;27286;47.870;19.006;2023-04-01T23:21:46;2.40;;;1.27;;
41572;SDS011;27286;47.870;19.006;2023-04-01T23:24:44;2.40;;;1.13;;
41572;SDS011;27286;47.870;19.006;2023-04-01T23:27:21;2.38;;;0.80;;
41572;SDS011;27286;47.870;19.006;2023-04-01T23:29:53;2.67;;;0.75;;
41572;SDS011;27286;47.870;19.006;2023-04-01T23:32:19;4.53;;;1.00;;
41572;SDS011;27286;47.870;19.006;2023-04-01T23:34:51;2.28;;;0.77;;
41572;SDS011;27286;47.870;19.006;2023-04-01T23:37:18;1.88;;;0.82;;
41572;SDS011;27286;47.870;19.006;2023-04-01T23:39:49;2.47;;;0.80;;
41572;SDS011;27286;47.870;19.006;2023-04-01T23:44:57;3.70;;;0.70;;
41572;SDS011;27286;47.870;19.006;2023-04-01T23:47:32;1.45;;;0.60;;
41572;SDS011;27286;47.870;19.006;2023-04-01T23:50:04;1.88;;;0.70;;
41572;SDS011;27286;47.870;19.006;2023-04-01T23:52:35;4.95;;;0.50;;
41572;SDS011;27286;47.870;19.006;2023-04-01T23:57:36;1.92;;;0.52;;
